sensor_id;sensor_type;location;lat;lon;timestamp;P1;durP1;ratioP1;P2;durP2;ratioP2
20705;SDS011;10514;49.468;11.044;2023-08-07T00:01:46;0.40;;;0.40;;
20705;SDS011;10514;49.468;11.044;2023-08-07T00:04:12;1.10;;;0.40;;
20705;SDS011;10514;49.468;11.044;2023-08-07T00:06:38;1.27;;;0.35;;
20705;SDS011;10514;49.468;11.044;2023-08-07T00:09:03;0.28;;;0.28;;
20705;SDS011;10514;49.468;11.044;2023-08-07T00:11:29;0.50;;;0.50;;
20705;SDS011;10514;49.468;11.044;2023-08-07T00:13:55;0.30;;;0.30;;
20705;SDS011;10514;49.468;11.044;2023-08-07T00:16:20;2.60;;;0.50;;
20705;SDS011;10514;49.468;11.044;2023-08-07T00:18:46;0.70;;;0.30;;
20705;SDS011;10514;49.468;11.044;2023-08-07T00:21:12;0.77;;;0.30;;
20705;SDS011;10514;49.468;11.044;2023-08-07T00:23:38;1.33;;;0.40;;
20705;SDS011;10514;49.468;11.044;2023-08-07T00:26:04;0.30;;;0.30;;
20705;SDS011;10514;49.468;11.044;2023-08-07T00:28:30;0.40;;;0.30;;
20705;SDS011;10514;49.468;11.044;2023-08-07T00:30:56;1.38;;;0.40;;
20705;SDS011;10514;49.468;11.044;2023-08-07T00:33:22;1.08;;;0.60;;
20705;SDS011;10514;49.468;11.044;2023-08-07T00:35:47;1.05;;;0.40;;
20705;SDS011;10514;49.468;11.044;2023-08-07T00:38:13;0.20;;;0.20;;
20705;SDS011;10514;49.468;11.044;2023-08-07T00:40:40;0.55;;;0.40;;
20705;SDS011;10514;49.468;11.044;2023-08-07T00:43:06;1.65;;;0.65;;
20705;SDS011;10514;49.468;11.044;2023-08-07T00:45:34;0.45;;;0.40;;
20705;SDS011;10514;49.468;11.044;2023-08-07T00:48:06;0.82;;;0.30;;
20705;SDS011;10514;49.468;11.044;2023-08-07T00:50:32;1.15;;;0.30;;
20705;SDS011;10514;49.468;11.044;2023-08-07T00:52:58;0.50;;;0.50;;
20705;SDS011;10514;49.468;11.044;2023-08-07T00:55:25;0.40;;;0.40;;
20705;SDS011;10514;49.468;11.044;2023-08-07T00:57:51;0.55;;;0.30;;
20705;SDS011;10514;49.468;11.044;2023-08-07T01:00:17;5.78;;;0.50;;
20705;SDS011;10514;49.468;11.044;2023-08-07T01:02:43;2.17;;;0.40;;
20705;SDS011;10514;49.468;11.044;2023-08-07T01:05:09;1.40;;;0.38;;
20705;SDS011;10514;49.468;11.044;2023-08-07T01:07:35;1.08;;;0.52;;
20705;SDS011;10514;49.468;11.044;2023-08-07T01:10:01;0.43;;;0.43;;
20705;SDS011;10514;49.468;11.044;2023-08-07T01:12:33;1.17;;;0.43;;
20705;SDS011;10514;49.468;11.044;2023-08-07T01:15:11;0.40;;;0.40;;
20705;SDS011;10514;49.468;11.044;2023-08-07T01:17:41;0.75;;;0.50;;
20705;SDS011;10514;49.468;11.044;2023-08-07T01:20:09;0.40;;;0.40;;
20705;SDS011;10514;49.468;11.044;2023-08-07T01:22:36;0.95;;;0.50;;
20705;SDS011;10514;49.468;11.044;2023-08-07T01:25:01;0.60;;;0.50;;
20705;SDS011;10514;49.468;11.044;2023-08-07T01:27:33;1.23;;;0.60;;
20705;SDS011;10514;49.468;11.044;2023-08-07T01:30:43;0.70;;;0.50;;
20705;SDS011;10514;49.468;11.044;2023-08-07T01:33:11;0.57;;;0.50;;
20705;SDS011;10514;49.468;11.044;2023-08-07T01:35:46;0.52;;;0.47;;
20705;SDS011;10514;49.468;11.044;2023-08-07T01:38:14;0.50;;;0.45;;
20705;SDS011;10514;49.468;11.044;2023-08-07T01:40:41;0.82;;;0.35;;
20705;SDS011;10514;49.468;11.044;2023-08-07T01:43:08;0.45;;;0.45;;
20705;SDS011;10514;49.468;11.044;2023-08-07T01:45:34;0.40;;;0.40;;
20705;SDS011;10514;49.468;11.044;2023-08-07T01:48:00;0.68;;;0.50;;
20705;SDS011;10514;49.468;11.044;2023-08-07T01:50:30;2.78;;;0.50;;
20705;SDS011;10514;49.468;11.044;2023-08-07T01:52:56;0.35;;;0.35;;
20705;SDS011;10514;49.468;11.044;2023-08-07T01:55:22;0.40;;;0.40;;
20705;SDS011;10514;49.468;11.044;2023-08-07T01:57:48;1.88;;;0.77;;
20705;SDS011;10514;49.468;11.044;2023-08-07T02:00:14;0.68;;;0.60;;
20705;SDS011;10514;49.468;11.044;2023-08-07T02:02:39;1.98;;;0.45;;
20705;SDS011;10514;49.468;11.044;2023-08-07T02:05:05;2.00;;;0.60;;
20705;SDS011;10514;49.468;11.044;2023-08-07T02:07:31;1.95;;;0.60;;
20705;SDS011;10514;49.468;11.044;2023-08-07T02:09:57;0.55;;;0.50;;
20705;SDS011;10514;49.468;11.044;2023-08-07T02:12:23;1.27;;;0.50;;
20705;SDS011;10514;49.468;11.044;2023-08-07T02:14:51;1.15;;;0.52;;
20705;SDS011;10514;49.468;11.044;2023-08-07T02:17:17;1.00;;;0.60;;
20705;SDS011;10514;49.468;11.044;2023-08-07T02:19:43;1.85;;;0.50;;
20705;SDS011;10514;49.468;11.044;2023-08-07T02:22:09;3.42;;;1.00;;
20705;SDS011;10514;49.468;11.044;2023-08-07T02:24:34;2.17;;;0.57;;
20705;SDS011;10514;49.468;11.044;2023-08-07T02:27:00;1.27;;;0.60;;
20705;SDS011;10514;49.468;11.044;2023-08-07T02:29:26;0.65;;;0.50;;
20705;SDS011;10514;49.468;11.044;2023-08-07T02:31:52;1.50;;;0.50;;
20705;SDS011;10514;49.468;11.044;2023-08-07T02:34:17;0.63;;;0.60;;
20705;SDS011;10514;49.468;11.044;2023-08-07T02:36:43;0.93;;;0.60;;
20705;SDS011;10514;49.468;11.044;2023-08-07T02:39:09;0.93;;;0.50;;
20705;SDS011;10514;49.468;11.044;2023-08-07T02:41:34;1.15;;;0.57;;
20705;SDS011;10514;49.468;11.044;2023-08-07T02:44:00;1.40;;;0.60;;
20705;SDS011;10514;49.468;11.044;2023-08-07T02:46:26;1.45;;;0.60;;
20705;SDS011;10514;49.468;11.044;2023-08-07T02:48:52;1.25;;;0.50;;
20705;SDS011;10514;49.468;11.044;2023-08-07T02:51:18;1.25;;;0.70;;
20705;SDS011;10514;49.468;11.044;2023-08-07T02:53:44;1.30;;;0.70;;
20705;SDS011;10514;49.468;11.044;2023-08-07T02:56:10;2.85;;;1.00;;
20705;SDS011;10514;49.468;11.044;2023-08-07T02:58:35;3.35;;;0.80;;
20705;SDS011;10514;49.468;11.044;2023-08-07T03:01:04;1.95;;;0.80;;
20705;SDS011;10514;49.468;11.044;2023-08-07T03:03:33;1.80;;;0.70;;
20705;SDS011;10514;49.468;11.044;2023-08-07T03:05:59;1.80;;;0.63;;
20705;SDS011;10514;49.468;11.044;2023-08-07T03:08:24;0.50;;;0.50;;
20705;SDS011;10514;49.468;11.044;2023-08-07T03:10:51;2.15;;;0.80;;
20705;SDS011;10514;49.468;11.044;2023-08-07T03:13:17;0.70;;;0.68;;
20705;SDS011;10514;49.468;11.044;2023-08-07T03:15:43;1.63;;;0.90;;
20705;SDS011;10514;49.468;11.044;2023-08-07T03:18:09;1.73;;;0.90;;
20705;SDS011;10514;49.468;11.044;2023-08-07T03:20:38;1.80;;;0.95;;
20705;SDS011;10514;49.468;11.044;2023-08-07T03:23:03;1.38;;;0.85;;
20705;SDS011;10514;49.468;11.044;2023-08-07T03:25:29;2.67;;;0.80;;
20705;SDS011;10514;49.468;11.044;2023-08-07T03:27:55;1.50;;;0.68;;
20705;SDS011;10514;49.468;11.044;2023-08-07T03:30:21;2.38;;;1.20;;
20705;SDS011;10514;49.468;11.044;2023-08-07T03:32:47;1.48;;;0.82;;
20705;SDS011;10514;49.468;11.044;2023-08-07T03:35:13;1.40;;;0.95;;
20705;SDS011;10514;49.468;11.044;2023-08-07T03:37:39;1.35;;;0.82;;
20705;SDS011;10514;49.468;11.044;2023-08-07T03:40:05;3.55;;;1.13;;
20705;SDS011;10514;49.468;11.044;2023-08-07T03:42:30;1.90;;;1.00;;
20705;SDS011;10514;49.468;11.044;2023-08-07T03:44:56;1.10;;;0.85;;
20705;SDS011;10514;49.468;11.044;2023-08-07T03:47:23;2.83;;;1.30;;
20705;SDS011;10514;49.468;11.044;2023-08-07T03:49:49;1.98;;;1.20;;
20705;SDS011;10514;49.468;11.044;2023-08-07T03:52:15;8.25;;;1.15;;
20705;SDS011;10514;49.468;11.044;2023-08-07T03:54:42;2.33;;;1.23;;
20705;SDS011;10514;49.468;11.044;2023-08-07T03:57:08;2.28;;;1.02;;
20705;SDS011;10514;49.468;11.044;2023-08-07T03:59:35;4.28;;;1.48;;
20705;SDS011;10514;49.468;11.044;2023-08-07T04:02:01;2.22;;;1.08;;
20705;SDS011;10514;49.468;11.044;2023-08-07T04:04:27;4.45;;;1.30;;
20705;SDS011;10514;49.468;11.044;2023-08-07T04:06:53;5.22;;;1.63;;
20705;SDS011;10514;49.468;11.044;2023-08-07T04:09:19;5.00;;;1.33;;
20705;SDS011;10514;49.468;11.044;2023-08-07T04:11:45;2.80;;;1.30;;
20705;SDS011;10514;49.468;11.044;2023-08-07T04:14:10;3.75;;;1.25;;
20705;SDS011;10514;49.468;11.044;2023-08-07T04:16:36;3.47;;;1.00;;
20705;SDS011;10514;49.468;11.044;2023-08-07T04:19:02;3.28;;;1.40;;
20705;SDS011;10514;49.468;11.044;2023-08-07T04:21:30;2.80;;;1.35;;
20705;SDS011;10514;49.468;11.044;2023-08-07T04:23:55;5.28;;;1.30;;
20705;SDS011;10514;49.468;11.044;2023-08-07T04:26:21;4.35;;;1.27;;
20705;SDS011;10514;49.468;11.044;2023-08-07T04:28:47;7.65;;;1.30;;
20705;SDS011;10514;49.468;11.044;2023-08-07T04:31:13;3.83;;;1.42;;
20705;SDS011;10514;49.468;11.044;2023-08-07T04:33:38;6.70;;;1.63;;
20705;SDS011;10514;49.468;11.044;2023-08-07T04:36:04;3.75;;;1.40;;
20705;SDS011;10514;49.468;11.044;2023-08-07T04:38:30;6.90;;;1.50;;
20705;SDS011;10514;49.468;11.044;2023-08-07T04:40:56;5.90;;;2.17;;
20705;SDS011;10514;49.468;11.044;2023-08-07T04:43:21;3.17;;;1.48;;
20705;SDS011;10514;49.468;11.044;2023-08-07T04:45:48;5.00;;;1.80;;
20705;SDS011;10514;49.468;11.044;2023-08-07T04:48:14;3.38;;;1.60;;
20705;SDS011;10514;49.468;11.044;2023-08-07T04:50:40;5.15;;;1.48;;
20705;SDS011;10514;49.468;11.044;2023-08-07T04:53:06;4.38;;;1.95;;
20705;SDS011;10514;49.468;11.044;2023-08-07T04:55:32;5.20;;;1.38;;
20705;SDS011;10514;49.468;11.044;2023-08-07T04:57:58;6.72;;;1.55;;
20705;SDS011;10514;49.468;11.044;2023-08-07T05:00:24;3.03;;;1.63;;
20705;SDS011;10514;49.468;11.044;2023-08-07T05:02:50;6.53;;;2.17;;
20705;SDS011;10514;49.468;11.044;2023-08-07T05:05:16;3.67;;;1.60;;
20705;SDS011;10514;49.468;11.044;2023-08-07T05:07:46;2.95;;;1.58;;
20705;SDS011;10514;49.468;11.044;2023-08-07T05:10:12;6.22;;;2.22;;
20705;SDS011;10514;49.468;11.044;2023-08-07T05:12:38;3.78;;;1.73;;
20705;SDS011;10514;49.468;11.044;2023-08-07T05:15:04;3.50;;;2.08;;
20705;SDS011;10514;49.468;11.044;2023-08-07T05:17:31;3.88;;;1.73;;
20705;SDS011;10514;49.468;11.044;2023-08-07T05:19:56;2.55;;;1.48;;
20705;SDS011;10514;49.468;11.044;2023-08-07T05:22:22;3.92;;;1.83;;
20705;SDS011;10514;49.468;11.044;2023-08-07T05:24:48;5.10;;;1.75;;
20705;SDS011;10514;49.468;11.044;2023-08-07T05:27:15;3.03;;;1.60;;
20705;SDS011;10514;49.468;11.044;2023-08-07T05:29:41;5.78;;;1.80;;
20705;SDS011;10514;49.468;11.044;2023-08-07T05:32:10;5.72;;;1.85;;
20705;SDS011;10514;49.468;11.044;2023-08-07T05:34:36;6.70;;;2.17;;
20705;SDS011;10514;49.468;11.044;2023-08-07T05:37:02;14.82;;;2.08;;
20705;SDS011;10514;49.468;11.044;2023-08-07T05:39:28;6.22;;;1.40;;
20705;SDS011;10514;49.468;11.044;2023-08-07T05:41:53;3.65;;;1.52;;
20705;SDS011;10514;49.468;11.044;2023-08-07T05:44:22;3.65;;;1.88;;
20705;SDS011;10514;49.468;11.044;2023-08-07T05:46:48;5.38;;;2.10;;
20705;SDS011;10514;49.468;11.044;2023-08-07T05:49:14;9.38;;;2.08;;
20705;SDS011;10514;49.468;11.044;2023-08-07T05:51:40;2.63;;;1.02;;
20705;SDS011;10514;49.468;11.044;2023-08-07T05:54:05;4.55;;;1.45;;
20705;SDS011;10514;49.468;11.044;2023-08-07T05:56:31;3.35;;;1.42;;
20705;SDS011;10514;49.468;11.044;2023-08-07T05:58:57;2.55;;;1.60;;
20705;SDS011;10514;49.468;11.044;2023-08-07T06:01:22;5.38;;;1.67;;
20705;SDS011;10514;49.468;11.044;2023-08-07T06:03:54;2.33;;;1.25;;
20705;SDS011;10514;49.468;11.044;2023-08-07T06:06:19;6.60;;;1.50;;
20705;SDS011;10514;49.468;11.044;2023-08-07T06:08:45;3.13;;;1.67;;
20705;SDS011;10514;49.468;11.044;2023-08-07T06:11:11;2.60;;;1.80;;
20705;SDS011;10514;49.468;11.044;2023-08-07T06:13:37;3.28;;;1.40;;
20705;SDS011;10514;49.468;11.044;2023-08-07T06:16:03;2.42;;;1.05;;
20705;SDS011;10514;49.468;11.044;2023-08-07T06:18:29;3.20;;;1.63;;
20705;SDS011;10514;49.468;11.044;2023-08-07T06:20:55;3.90;;;1.40;;
20705;SDS011;10514;49.468;11.044;2023-08-07T06:23:21;2.38;;;1.17;;
20705;SDS011;10514;49.468;11.044;2023-08-07T06:25:47;3.30;;;2.03;;
20705;SDS011;10514;49.468;11.044;2023-08-07T06:28:13;5.53;;;1.52;;
20705;SDS011;10514;49.468;11.044;2023-08-07T06:30:38;2.97;;;1.30;;
20705;SDS011;10514;49.468;11.044;2023-08-07T06:33:04;8.93;;;1.52;;
20705;SDS011;10514;49.468;11.044;2023-08-07T06:35:30;4.88;;;1.52;;
20705;SDS011;10514;49.468;11.044;2023-08-07T06:37:56;3.40;;;1.50;;
20705;SDS011;10514;49.468;11.044;2023-08-07T06:40:22;5.05;;;1.73;;
20705;SDS011;10514;49.468;11.044;2023-08-07T06:42:48;5.43;;;1.80;;
20705;SDS011;10514;49.468;11.044;2023-08-07T06:45:14;2.38;;;1.45;;
20705;SDS011;10514;49.468;11.044;2023-08-07T06:47:40;3.08;;;1.35;;
20705;SDS011;10514;49.468;11.044;2023-08-07T06:50:07;5.43;;;1.50;;
20705;SDS011;10514;49.468;11.044;2023-08-07T06:52:33;6.85;;;1.70;;
20705;SDS011;10514;49.468;11.044;2023-08-07T06:54:59;3.47;;;1.70;;
20705;SDS011;10514;49.468;11.044;2023-08-07T06:57:25;2.83;;;1.50;;
20705;SDS011;10514;49.468;11.044;2023-08-07T06:59:51;4.57;;;1.52;;
20705;SDS011;10514;49.468;11.044;2023-08-07T07:02:16;3.60;;;1.63;;
20705;SDS011;10514;49.468;11.044;2023-08-07T07:04:42;3.20;;;1.77;;
20705;SDS011;10514;49.468;11.044;2023-08-07T07:07:08;4.57;;;1.63;;
20705;SDS011;10514;49.468;11.044;2023-08-07T07:09:34;3.00;;;1.58;;
20705;SDS011;10514;49.468;11.044;2023-08-07T07:12:00;4.45;;;1.42;;
20705;SDS011;10514;49.468;11.044;2023-08-07T07:14:26;6.72;;;1.90;;
20705;SDS011;10514;49.468;11.044;2023-08-07T07:16:52;6.22;;;1.85;;
20705;SDS011;10514;49.468;11.044;2023-08-07T07:19:17;4.32;;;1.90;;
20705;SDS011;10514;49.468;11.044;2023-08-07T07:21:43;4.18;;;1.55;;
20705;SDS011;10514;49.468;11.044;2023-08-07T07:24:09;2.53;;;1.20;;
20705;SDS011;10514;49.468;11.044;2023-08-07T07:26:35;5.70;;;1.83;;
20705;SDS011;10514;49.468;11.044;2023-08-07T07:29:01;6.28;;;1.83;;
20705;SDS011;10514;49.468;11.044;2023-08-07T07:31:27;3.28;;;1.63;;
20705;SDS011;10514;49.468;11.044;2023-08-07T07:33:52;5.70;;;1.38;;
20705;SDS011;10514;49.468;11.044;2023-08-07T07:36:18;3.90;;;1.50;;
20705;SDS011;10514;49.468;11.044;2023-08-07T07:38:45;8.02;;;1.98;;
20705;SDS011;10514;49.468;11.044;2023-08-07T07:41:14;6.15;;;1.98;;
20705;SDS011;10514;49.468;11.044;2023-08-07T07:43:40;6.72;;;1.65;;
20705;SDS011;10514;49.468;11.044;2023-08-07T07:46:06;4.22;;;1.58;;
20705;SDS011;10514;49.468;11.044;2023-08-07T07:48:32;6.18;;;1.90;;
20705;SDS011;10514;49.468;11.044;2023-08-07T07:50:59;6.22;;;1.50;;
20705;SDS011;10514;49.468;11.044;2023-08-07T07:53:29;2.85;;;1.38;;
20705;SDS011;10514;49.468;11.044;2023-08-07T07:55:55;3.83;;;1.48;;
20705;SDS011;10514;49.468;11.044;2023-08-07T07:58:21;4.15;;;1.90;;
20705;SDS011;10514;49.468;11.044;2023-08-07T08:00:47;5.30;;;2.05;;
20705;SDS011;10514;49.468;11.044;2023-08-07T08:03:13;6.22;;;1.92;;
20705;SDS011;10514;49.468;11.044;2023-08-07T08:05:39;4.60;;;1.40;;
20705;SDS011;10514;49.468;11.044;2023-08-07T08:08:05;4.80;;;1.98;;
20705;SDS011;10514;49.468;11.044;2023-08-07T08:10:35;2.88;;;1.50;;
20705;SDS011;10514;49.468;11.044;2023-08-07T08:13:01;5.63;;;1.58;;
20705;SDS011;10514;49.468;11.044;2023-08-07T08:15:29;7.25;;;1.67;;
20705;SDS011;10514;49.468;11.044;2023-08-07T08:17:55;5.15;;;1.98;;
20705;SDS011;10514;49.468;11.044;2023-08-07T08:20:20;3.00;;;2.05;;
20705;SDS011;10514;49.468;11.044;2023-08-07T08:22:46;5.25;;;2.05;;
20705;SDS011;10514;49.468;11.044;2023-08-07T08:25:12;8.65;;;2.00;;
20705;SDS011;10514;49.468;11.044;2023-08-07T08:27:38;3.92;;;1.77;;
20705;SDS011;10514;49.468;11.044;2023-08-07T08:30:05;4.03;;;1.80;;
20705;SDS011;10514;49.468;11.044;2023-08-07T08:32:33;4.82;;;1.60;;
20705;SDS011;10514;49.468;11.044;2023-08-07T08:34:59;4.63;;;1.60;;
20705;SDS011;10514;49.468;11.044;2023-08-07T08:37:25;6.78;;;1.75;;
20705;SDS011;10514;49.468;11.044;2023-08-07T08:39:52;4.45;;;1.73;;
20705;SDS011;10514;49.468;11.044;2023-08-07T08:42:17;6.05;;;2.10;;
20705;SDS011;10514;49.468;11.044;2023-08-07T08:44:45;5.43;;;2.13;;
20705;SDS011;10514;49.468;11.044;2023-08-07T08:47:16;3.47;;;1.83;;
20705;SDS011;10514;49.468;11.044;2023-08-07T08:50:24;6.10;;;1.80;;
20705;SDS011;10514;49.468;11.044;2023-08-07T08:52:35;6.78;;;2.15;;
20705;SDS011;10514;49.468;11.044;2023-08-07T08:55:03;6.43;;;1.90;;
20705;SDS011;10514;49.468;11.044;2023-08-07T08:57:29;4.72;;;1.60;;
20705;SDS011;10514;49.468;11.044;2023-08-07T08:59:55;3.17;;;1.60;;
20705;SDS011;10514;49.468;11.044;2023-08-07T09:02:22;5.40;;;1.73;;
20705;SDS011;10514;49.468;11.044;2023-08-07T09:04:48;5.78;;;2.08;;
20705;SDS011;10514;49.468;11.044;2023-08-07T09:07:14;2.15;;;1.55;;
20705;SDS011;10514;49.468;11.044;2023-08-07T09:09:43;7.50;;;1.90;;
20705;SDS011;10514;49.468;11.044;2023-08-07T09:12:12;4.45;;;1.33;;
20705;SDS011;10514;49.468;11.044;2023-08-07T09:14:44;3.13;;;1.40;;
20705;SDS011;10514;49.468;11.044;2023-08-07T09:17:11;3.88;;;1.45;;
20705;SDS011;10514;49.468;11.044;2023-08-07T09:19:38;2.55;;;1.30;;
20705;SDS011;10514;49.468;11.044;2023-08-07T09:22:04;3.92;;;1.58;;
20705;SDS011;10514;49.468;11.044;2023-08-07T09:24:30;3.63;;;1.08;;
20705;SDS011;10514;49.468;11.044;2023-08-07T09:26:57;4.47;;;1.30;;
20705;SDS011;10514;49.468;11.044;2023-08-07T09:29:23;5.70;;;1.63;;
20705;SDS011;10514;49.468;11.044;2023-08-07T09:31:49;5.65;;;1.52;;
20705;SDS011;10514;49.468;11.044;2023-08-07T09:34:15;5.03;;;1.48;;
20705;SDS011;10514;49.468;11.044;2023-08-07T09:36:45;6.35;;;1.23;;
20705;SDS011;10514;49.468;11.044;2023-08-07T09:39:11;2.83;;;1.38;;
20705;SDS011;10514;49.468;11.044;2023-08-07T09:41:37;1.75;;;1.23;;
20705;SDS011;10514;49.468;11.044;2023-08-07T09:44:06;2.42;;;1.10;;
20705;SDS011;10514;49.468;11.044;2023-08-07T09:46:45;2.10;;;1.02;;
20705;SDS011;10514;49.468;11.044;2023-08-07T09:49:10;3.30;;;1.00;;
20705;SDS011;10514;49.468;11.044;2023-08-07T09:51:43;2.28;;;1.55;;
20705;SDS011;10514;49.468;11.044;2023-08-07T09:54:10;5.70;;;1.23;;
20705;SDS011;10514;49.468;11.044;2023-08-07T09:56:36;5.68;;;1.10;;
20705;SDS011;10514;49.468;11.044;2023-08-07T09:59:03;1.73;;;1.00;;
20705;SDS011;10514;49.468;11.044;2023-08-07T10:01:29;2.33;;;1.08;;
20705;SDS011;10514;49.468;11.044;2023-08-07T10:03:54;2.05;;;1.42;;
20705;SDS011;10514;49.468;11.044;2023-08-07T10:06:21;4.80;;;1.15;;
20705;SDS011;10514;49.468;11.044;2023-08-07T10:08:47;2.63;;;1.33;;
20705;SDS011;10514;49.468;11.044;2023-08-07T10:11:14;5.30;;;1.35;;
20705;SDS011;10514;49.468;11.044;2023-08-07T10:13:41;2.83;;;1.38;;
20705;SDS011;10514;49.468;11.044;2023-08-07T10:16:07;4.57;;;1.27;;
20705;SDS011;10514;49.468;11.044;2023-08-07T10:18:33;3.17;;;1.48;;
20705;SDS011;10514;49.468;11.044;2023-08-07T10:21:00;5.93;;;1.45;;
20705;SDS011;10514;49.468;11.044;2023-08-07T10:23:27;3.63;;;1.30;;
20705;SDS011;10514;49.468;11.044;2023-08-07T10:25:53;2.70;;;1.67;;
20705;SDS011;10514;49.468;11.044;2023-08-07T10:28:19;2.80;;;1.58;;
20705;SDS011;10514;49.468;11.044;2023-08-07T10:30:47;2.90;;;1.20;;
20705;SDS011;10514;49.468;11.044;2023-08-07T10:33:13;1.95;;;1.08;;
20705;SDS011;10514;49.468;11.044;2023-08-07T10:35:44;3.63;;;1.40;;
20705;SDS011;10514;49.468;11.044;2023-08-07T10:38:12;4.55;;;1.40;;
20705;SDS011;10514;49.468;11.044;2023-08-07T10:43:23;1.30;;;1.00;;
20705;SDS011;10514;49.468;11.044;2023-08-07T10:45:49;2.25;;;1.30;;
20705;SDS011;10514;49.468;11.044;2023-08-07T10:48:18;1.00;;;0.80;;
20705;SDS011;10514;49.468;11.044;2023-08-07T10:50:51;5.22;;;1.20;;
20705;SDS011;10514;49.468;11.044;2023-08-07T10:53:36;2.88;;;1.48;;
20705;SDS011;10514;49.468;11.044;2023-08-07T10:56:08;1.42;;;1.10;;
20705;SDS011;10514;49.468;11.044;2023-08-07T10:58:36;2.58;;;1.10;;
20705;SDS011;10514;49.468;11.044;2023-08-07T11:04:00;6.80;;;1.50;;
20705;SDS011;10514;49.468;11.044;2023-08-07T11:06:32;3.28;;;1.27;;
20705;SDS011;10514;49.468;11.044;2023-08-07T11:08:58;3.13;;;1.40;;
20705;SDS011;10514;49.468;11.044;2023-08-07T11:11:26;3.85;;;1.25;;
20705;SDS011;10514;49.468;11.044;2023-08-07T11:13:52;3.08;;;2.17;;
20705;SDS011;10514;49.468;11.044;2023-08-07T11:16:18;2.80;;;1.63;;
20705;SDS011;10514;49.468;11.044;2023-08-07T11:18:46;1.98;;;1.10;;
20705;SDS011;10514;49.468;11.044;2023-08-07T11:21:12;3.15;;;1.25;;
20705;SDS011;10514;49.468;11.044;2023-08-07T11:23:39;2.55;;;1.30;;
20705;SDS011;10514;49.468;11.044;2023-08-07T11:26:05;2.30;;;1.40;;
20705;SDS011;10514;49.468;11.044;2023-08-07T11:28:31;6.47;;;1.65;;
20705;SDS011;10514;49.468;11.044;2023-08-07T11:30:57;5.22;;;1.67;;
20705;SDS011;10514;49.468;11.044;2023-08-07T11:33:24;2.78;;;1.52;;
20705;SDS011;10514;49.468;11.044;2023-08-07T11:35:50;2.72;;;1.10;;
20705;SDS011;10514;49.468;11.044;2023-08-07T11:38:32;4.88;;;1.55;;
20705;SDS011;10514;49.468;11.044;2023-08-07T11:41:02;4.65;;;1.50;;
20705;SDS011;10514;49.468;11.044;2023-08-07T11:43:29;5.85;;;2.63;;
20705;SDS011;10514;49.468;11.044;2023-08-07T11:45:59;4.55;;;1.40;;
20705;SDS011;10514;49.468;11.044;2023-08-07T11:48:27;3.85;;;1.60;;
20705;SDS011;10514;49.468;11.044;2023-08-07T11:50:53;2.35;;;1.20;;
20705;SDS011;10514;49.468;11.044;2023-08-07T11:53:23;7.03;;;1.42;;
20705;SDS011;10514;49.468;11.044;2023-08-07T11:55:56;3.67;;;1.58;;
20705;SDS011;10514;49.468;11.044;2023-08-07T11:58:34;3.40;;;1.10;;
20705;SDS011;10514;49.468;11.044;2023-08-07T12:01:03;2.55;;;1.50;;
20705;SDS011;10514;49.468;11.044;2023-08-07T12:03:41;2.13;;;1.35;;
20705;SDS011;10514;49.468;11.044;2023-08-07T12:06:08;3.03;;;1.40;;
20705;SDS011;10514;49.468;11.044;2023-08-07T12:08:35;4.13;;;1.30;;
20705;SDS011;10514;49.468;11.044;2023-08-07T12:11:03;2.35;;;1.27;;
20705;SDS011;10514;49.468;11.044;2023-08-07T12:13:36;2.40;;;1.33;;
20705;SDS011;10514;49.468;11.044;2023-08-07T12:16:07;1.60;;;1.15;;
20705;SDS011;10514;49.468;11.044;2023-08-07T12:18:33;2.92;;;1.10;;
20705;SDS011;10514;49.468;11.044;2023-08-07T12:21:01;3.30;;;1.52;;
20705;SDS011;10514;49.468;11.044;2023-08-07T12:23:34;2.40;;;1.10;;
20705;SDS011;10514;49.468;11.044;2023-08-07T12:26:01;3.83;;;1.25;;
20705;SDS011;10514;49.468;11.044;2023-08-07T12:28:27;4.18;;;1.10;;
20705;SDS011;10514;49.468;11.044;2023-08-07T12:30:52;5.47;;;1.38;;
20705;SDS011;10514;49.468;11.044;2023-08-07T12:33:18;7.97;;;2.25;;
20705;SDS011;10514;49.468;11.044;2023-08-07T12:35:45;2.25;;;1.00;;
20705;SDS011;10514;49.468;11.044;2023-08-07T12:38:11;3.17;;;0.90;;
20705;SDS011;10514;49.468;11.044;2023-08-07T12:40:39;3.83;;;1.05;;
20705;SDS011;10514;49.468;11.044;2023-08-07T12:43:05;1.02;;;0.82;;
20705;SDS011;10514;49.468;11.044;2023-08-07T12:45:31;1.92;;;1.05;;
20705;SDS011;10514;49.468;11.044;2023-08-07T12:47:57;3.58;;;1.27;;
20705;SDS011;10514;49.468;11.044;2023-08-07T12:50:23;5.55;;;0.93;;
20705;SDS011;10514;49.468;11.044;2023-08-07T12:52:50;2.75;;;1.08;;
20705;SDS011;10514;49.468;11.044;2023-08-07T12:55:15;2.92;;;1.00;;
20705;SDS011;10514;49.468;11.044;2023-08-07T12:57:41;2.28;;;1.00;;
20705;SDS011;10514;49.468;11.044;2023-08-07T13:00:08;1.75;;;0.88;;
20705;SDS011;10514;49.468;11.044;2023-08-07T13:02:42;3.05;;;0.93;;
20705;SDS011;10514;49.468;11.044;2023-08-07T13:05:09;2.78;;;0.90;;
20705;SDS011;10514;49.468;11.044;2023-08-07T13:07:38;2.00;;;1.10;;
20705;SDS011;10514;49.468;11.044;2023-08-07T13:10:05;3.67;;;1.05;;
20705;SDS011;10514;49.468;11.044;2023-08-07T13:12:34;2.80;;;1.15;;
20705;SDS011;10514;49.468;11.044;2023-08-07T13:15:00;2.00;;;1.08;;
20705;SDS011;10514;49.468;11.044;2023-08-07T13:17:26;1.98;;;1.05;;
20705;SDS011;10514;49.468;11.044;2023-08-07T13:19:52;2.15;;;1.00;;
20705;SDS011;10514;49.468;11.044;2023-08-07T13:22:17;1.80;;;0.98;;
20705;SDS011;10514;49.468;11.044;2023-08-07T13:24:43;1.67;;;0.80;;
20705;SDS011;10514;49.468;11.044;2023-08-07T13:27:09;3.63;;;0.90;;
20705;SDS011;10514;49.468;11.044;2023-08-07T13:29:35;1.95;;;1.00;;
20705;SDS011;10514;49.468;11.044;2023-08-07T13:32:01;3.90;;;1.10;;
20705;SDS011;10514;49.468;11.044;2023-08-07T13:34:32;1.30;;;1.02;;
20705;SDS011;10514;49.468;11.044;2023-08-07T13:36:57;7.10;;;1.17;;
20705;SDS011;10514;49.468;11.044;2023-08-07T13:39:24;2.40;;;1.08;;
20705;SDS011;10514;49.468;11.044;2023-08-07T13:41:50;1.50;;;1.00;;
20705;SDS011;10514;49.468;11.044;2023-08-07T13:44:16;1.88;;;1.10;;
20705;SDS011;10514;49.468;11.044;2023-08-07T13:46:42;5.78;;;1.08;;
20705;SDS011;10514;49.468;11.044;2023-08-07T13:49:09;4.35;;;1.08;;
20705;SDS011;10514;49.468;11.044;2023-08-07T13:51:35;1.15;;;0.90;;
20705;SDS011;10514;49.468;11.044;2023-08-07T13:54:01;1.83;;;1.15;;
20705;SDS011;10514;49.468;11.044;2023-08-07T13:56:27;1.77;;;0.90;;
20705;SDS011;10514;49.468;11.044;2023-08-07T13:58:53;2.53;;;1.15;;
20705;SDS011;10514;49.468;11.044;2023-08-07T14:01:20;2.65;;;0.95;;
20705;SDS011;10514;49.468;11.044;2023-08-07T14:03:45;3.58;;;1.17;;
20705;SDS011;10514;49.468;11.044;2023-08-07T14:06:11;2.05;;;1.38;;
20705;SDS011;10514;49.468;11.044;2023-08-07T14:08:37;3.17;;;1.10;;
20705;SDS011;10514;49.468;11.044;2023-08-07T14:11:03;5.53;;;1.30;;
20705;SDS011;10514;49.468;11.044;2023-08-07T14:13:29;3.85;;;1.10;;
20705;SDS011;10514;49.468;11.044;2023-08-07T14:15:55;3.20;;;1.15;;
20705;SDS011;10514;49.468;11.044;2023-08-07T14:18:21;2.80;;;1.13;;
20705;SDS011;10514;49.468;11.044;2023-08-07T14:20:47;5.28;;;1.00;;
20705;SDS011;10514;49.468;11.044;2023-08-07T14:23:13;4.20;;;1.25;;
20705;SDS011;10514;49.468;11.044;2023-08-07T14:25:38;2.15;;;1.13;;
20705;SDS011;10514;49.468;11.044;2023-08-07T14:28:04;3.50;;;1.00;;
20705;SDS011;10514;49.468;11.044;2023-08-07T14:30:32;3.25;;;1.45;;
20705;SDS011;10514;49.468;11.044;2023-08-07T14:32:58;7.13;;;1.55;;
20705;SDS011;10514;49.468;11.044;2023-08-07T14:35:24;2.80;;;1.33;;
20705;SDS011;10514;49.468;11.044;2023-08-07T14:37:50;4.28;;;1.20;;